sensor_id;sensor_type;location;lat;lon;timestamp;temperature;humidity
36670;DHT22;22662;47.412;9.742;2022-11-14T00:02:23;5.20;99.90
36670;DHT22;22662;47.412;9.742;2022-11-14T00:04:48;5.30;99.90
36670;DHT22;22662;47.412;9.742;2022-11-14T00:07:14;5.20;99.90
36670;DHT22;22662;47.412;9.742;2022-11-14T00:09:40;5.30;99.90
36670;DHT22;22662;47.412;9.742;2022-11-14T00:12:07;5.30;99.90
36670;DHT22;22662;47.412;9.742;2022-11-14T00:14:33;5.20;99.90
36670;DHT22;22662;47.412;9.742;2022-11-14T00:16:58;5.20;99.90
36670;DHT22;22662;47.412;9.742;2022-11-14T00:19:24;5.30;99.90
36670;DHT22;22662;47.412;9.742;2022-11-14T00:21:50;5.30;99.90
36670;DHT22;22662;47.412;9.742;2022-11-14T00:24:17;5.30;99.90
36670;DHT22;22662;47.412;9.742;2022-11-14T00:26:42;5.20;99.90
36670;DHT22;22662;47.412;9.742;2022-11-14T00:29:09;5.10;99.90
36670;DHT22;22662;47.412;9.742;2022-11-14T00:31:35;5.10;99.90
36670;DHT22;22662;47.412;9.742;2022-11-14T00:34:00;5.20;99.90
36670;DHT22;22662;47.412;9.742;2022-11-14T00:36:26;5.30;99.90
36670;DHT22;22662;47.412;9.742;2022-11-14T00:38:52;5.20;99.90
36670;DHT22;22662;47.412;9.742;2022-11-14T00:41:19;5.30;99.90
36670;DHT22;22662;47.412;9.742;2022-11-14T00:43:44;5.30;99.90
36670;DHT22;22662;47.412;9.742;2022-11-14T00:46:10;5.40;99.90
36670;DHT22;22662;47.412;9.742;2022-11-14T00:48:35;5.40;99.90
36670;DHT22;22662;47.412;9.742;2022-11-14T00:51:01;5.40;99.90
36670;DHT22;22662;47.412;9.742;2022-11-14T00:53:26;5.40;99.90
36670;DHT22;22662;47.412;9.742;2022-11-14T00:55:53;5.40;99.90
36670;DHT22;22662;47.412;9.742;2022-11-14T00:58:19;5.50;99.90
36670;DHT22;22662;47.412;9.742;2022-11-14T01:00:44;5.50;99.90
36670;DHT22;22662;47.412;9.742;2022-11-14T01:03:10;5.40;99.90
36670;DHT22;22662;47.412;9.742;2022-11-14T01:05:42;5.40;99.90
36670;DHT22;22662;47.412;9.742;2022-11-14T01:08:07;5.40;99.90
36670;DHT22;22662;47.412;9.742;2022-11-14T01:10:33;5.50;99.90
36670;DHT22;22662;47.412;9.742;2022-11-14T01:12:59;5.50;99.90
36670;DHT22;22662;47.412;9.742;2022-11-14T01:15:24;5.40;99.90
36670;DHT22;22662;47.412;9.742;2022-11-14T01:17:50;5.40;99.90
36670;DHT22;22662;47.412;9.742;2022-11-14T01:20:15;5.40;99.90
36670;DHT22;22662;47.412;9.742;2022-11-14T01:22:41;5.40;99.90
36670;DHT22;22662;47.412;9.742;2022-11-14T01:25:07;5.40;99.90
36670;DHT22;22662;47.412;9.742;2022-11-14T01:27:32;5.40;99.90
36670;DHT22;22662;47.412;9.742;2022-11-14T01:29:58;5.40;99.90
36670;DHT22;22662;47.412;9.742;2022-11-14T01:32:24;5.50;99.90
36670;DHT22;22662;47.412;9.742;2022-11-14T01:34:50;5.50;99.90
36670;DHT22;22662;47.412;9.742;2022-11-14T01:37:15;5.50;99.90
36670;DHT22;22662;47.412;9.742;2022-11-14T01:39:41;5.50;99.90
36670;DHT22;22662;47.412;9.742;2022-11-14T01:42:06;5.50;99.90
36670;DHT22;22662;47.412;9.742;2022-11-14T01:47:03;5.50;99.90
36670;DHT22;22662;47.412;9.742;2022-11-14T01:49:33;5.40;99.90
36670;DHT22;22662;47.412;9.742;2022-11-14T01:54:28;5.40;99.90
36670;DHT22;22662;47.412;9.742;2022-11-14T01:56:56;5.40;99.90
36670;DHT22;22662;47.412;9.742;2022-11-14T01:59:24;5.50;99.90
36670;DHT22;22662;47.412;9.742;2022-11-14T02:01:51;5.50;99.90
36670;DHT22;22662;47.412;9.742;2022-11-14T02:04:18;5.50;99.90
36670;DHT22;22662;47.412;9.742;2022-11-14T02:06:45;5.50;99.90
36670;DHT22;22662;47.412;9.742;2022-11-14T02:09:11;5.50;99.90
36670;DHT22;22662;47.412;9.742;2022-11-14T02:11:38;5.40;99.90
36670;DHT22;22662;47.412;9.742;2022-11-14T02:14:04;5.40;99.90
36670;DHT22;22662;47.412;9.742;2022-11-14T02:16:31;5.40;99.90
36670;DHT22;22662;47.412;9.742;2022-11-14T02:18:56;5.40;99.90
36670;DHT22;22662;47.412;9.742;2022-11-14T02:21:22;5.40;99.90
36670;DHT22;22662;47.412;9.742;2022-11-14T02:23:47;5.40;99.90
36670;DHT22;22662;47.412;9.742;2022-11-14T02:26:19;5.40;99.90
36670;DHT22;22662;47.412;9.742;2022-11-14T02:28:45;5.50;99.90
36670;DHT22;22662;47.412;9.742;2022-11-14T02:31:11;5.50;99.90
36670;DHT22;22662;47.412;9.742;2022-11-14T02:33:37;5.50;99.90
36670;DHT22;22662;47.412;9.742;2022-11-14T02:36:02;5.50;99.90
36670;DHT22;22662;47.412;9.742;2022-11-14T02:38:28;5.50;99.90
36670;DHT22;22662;47.412;9.742;2022-11-14T02:40:54;5.50;99.90
36670;DHT22;22662;47.412;9.742;2022-11-14T02:43:19;5.50;99.90
36670;DHT22;22662;47.412;9.742;2022-11-14T02:45:45;5.40;99.90
36670;DHT22;22662;47.412;9.742;2022-11-14T02:48:10;5.50;99.90
36670;DHT22;22662;47.412;9.742;2022-11-14T02:50:36;5.50;99.90
36670;DHT22;22662;47.412;9.742;2022-11-14T02:53:01;5.50;99.90
36670;DHT22;22662;47.412;9.742;2022-11-14T02:55:27;5.50;99.90
36670;DHT22;22662;47.412;9.742;2022-11-14T02:57:53;5.50;99.90
36670;DHT22;22662;47.412;9.742;2022-11-14T03:00:18;5.60;99.90
36670;DHT22;22662;47.412;9.742;2022-11-14T03:02:44;5.60;99.90
36670;DHT22;22662;47.412;9.742;2022-11-14T03:05:09;5.60;99.90
36670;DHT22;22662;47.412;9.742;2022-11-14T03:07:35;5.60;99.90
36670;DHT22;22662;47.412;9.742;2022-11-14T03:10:00;5.60;99.90
36670;DHT22;22662;47.412;9.742;2022-11-14T03:12:26;5.60;99.90
36670;DHT22;22662;47.412;9.742;2022-11-14T03:14:52;5.60;99.90
36670;DHT22;22662;47.412;9.742;2022-11-14T03:17:17;5.60;99.90
36670;DHT22;22662;47.412;9.742;2022-11-14T03:19:43;5.60;99.90
36670;DHT22;22662;47.412;9.742;2022-11-14T03:22:08;5.70;99.90
36670;DHT22;22662;47.412;9.742;2022-11-14T03:24:34;5.60;99.90
36670;DHT22;22662;47.412;9.742;2022-11-14T03:27:00;5.60;99.90
36670;DHT22;22662;47.412;9.742;2022-11-14T03:29:25;5.60;99.90
36670;DHT22;22662;47.412;9.742;2022-11-14T03:31:51;5.60;99.90
36670;DHT22;22662;47.412;9.742;2022-11-14T03:34:16;5.70;99.90
36670;DHT22;22662;47.412;9.742;2022-11-14T03:36:42;5.70;99.90
36670;DHT22;22662;47.412;9.742;2022-11-14T03:39:08;5.70;99.90
36670;DHT22;22662;47.412;9.742;2022-11-14T03:41:34;5.70;99.90
36670;DHT22;22662;47.412;9.742;2022-11-14T03:43:59;5.70;99.90
36670;DHT22;22662;47.412;9.742;2022-11-14T03:46:25;5.70;99.90
36670;DHT22;22662;47.412;9.742;2022-11-14T03:48:51;5.70;99.90
36670;DHT22;22662;47.412;9.742;2022-11-14T03:51:16;5.70;99.90
36670;DHT22;22662;47.412;9.742;2022-11-14T03:53:42;5.60;99.90
36670;DHT22;22662;47.412;9.742;2022-11-14T03:56:08;5.70;99.90
36670;DHT22;22662;47.412;9.742;2022-11-14T03:58:33;5.70;99.90
36670;DHT22;22662;47.412;9.742;2022-11-14T04:00:59;5.60;99.90
36670;DHT22;22662;47.412;9.742;2022-11-14T04:03:24;5.70;99.90
36670;DHT22;22662;47.412;9.742;2022-11-14T04:05:50;5.70;99.90
36670;DHT22;22662;47.412;9.742;2022-11-14T04:08:16;5.70;99.90
36670;DHT22;22662;47.412;9.742;2022-11-14T04:10:42;5.60;99.90
36670;DHT22;22662;47.412;9.742;2022-11-14T04:13:10;5.60;99.90
36670;DHT22;22662;47.412;9.742;2022-11-14T04:15:36;5.50;99.90
36670;DHT22;22662;47.412;9.742;2022-11-14T04:18:01;5.50;99.90
36670;DHT22;22662;47.412;9.742;2022-11-14T04:20:27;5.50;99.90
36670;DHT22;22662;47.412;9.742;2022-11-14T04:22:53;5.40;99.90
36670;DHT22;22662;47.412;9.742;2022-11-14T04:25:18;5.40;99.90
36670;DHT22;22662;47.412;9.742;2022-11-14T04:27:44;5.50;99.90
36670;DHT22;22662;47.412;9.742;2022-11-14T04:30:10;5.40;99.90
36670;DHT22;22662;47.412;9.742;2022-11-14T04:32:35;5.30;99.90
36670;DHT22;22662;47.412;9.742;2022-11-14T04:35:01;5.30;99.90
36670;DHT22;22662;47.412;9.742;2022-11-14T04:37:26;5.30;99.90
36670;DHT22;22662;47.412;9.742;2022-11-14T04:39:52;5.30;99.90
36670;DHT22;22662;47.412;9.742;2022-11-14T04:42:18;5.30;99.90
36670;DHT22;22662;47.412;9.742;2022-11-14T04:44:44;5.30;99.90
36670;DHT22;22662;47.412;9.742;2022-11-14T04:47:09;5.40;99.90
36670;DHT22;22662;47.412;9.742;2022-11-14T04:49:35;5.40;99.90
36670;DHT22;22662;47.412;9.742;2022-11-14T04:52:01;5.40;99.90
36670;DHT22;22662;47.412;9.742;2022-11-14T04:54:27;5.40;99.90
36670;DHT22;22662;47.412;9.742;2022-11-14T04:56:52;5.50;99.90
36670;DHT22;22662;47.412;9.742;2022-11-14T04:59:18;5.50;99.90
36670;DHT22;22662;47.412;9.742;2022-11-14T05:01:43;5.50;99.90
36670;DHT22;22662;47.412;9.742;2022-11-14T05:04:09;5.60;99.90
36670;DHT22;22662;47.412;9.742;2022-11-14T05:06:34;5.60;99.90
36670;DHT22;22662;47.412;9.742;2022-11-14T05:09:00;5.60;99.90
36670;DHT22;22662;47.412;9.742;2022-11-14T05:11:25;5.60;99.90
36670;DHT22;22662;47.412;9.742;2022-11-14T05:13:51;5.60;99.90
36670;DHT22;22662;47.412;9.742;2022-11-14T05:16:17;5.50;99.90
36670;DHT22;22662;47.412;9.742;2022-11-14T05:18:43;5.60;99.90
36670;DHT22;22662;47.412;9.742;2022-11-14T05:21:10;5.70;99.90
36670;DHT22;22662;47.412;9.742;2022-11-14T05:23:37;5.60;99.90
36670;DHT22;22662;47.412;9.742;2022-11-14T05:26:03;5.60;99.90
36670;DHT22;22662;47.412;9.742;2022-11-14T05:28:29;5.60;99.90
36670;DHT22;22662;47.412;9.742;2022-11-14T05:31:02;5.60;99.90
36670;DHT22;22662;47.412;9.742;2022-11-14T05:33:28;5.60;99.90
36670;DHT22;22662;47.412;9.742;2022-11-14T05:35:54;5.70;99.90
36670;DHT22;22662;47.412;9.742;2022-11-14T05:38:19;5.70;99.90
36670;DHT22;22662;47.412;9.742;2022-11-14T05:40:45;5.80;99.90
36670;DHT22;22662;47.412;9.742;2022-11-14T05:43:10;5.70;99.90
36670;DHT22;22662;47.412;9.742;2022-11-14T05:45:36;5.80;99.90
36670;DHT22;22662;47.412;9.742;2022-11-14T05:48:01;5.80;99.90
36670;DHT22;22662;47.412;9.742;2022-11-14T05:50:27;5.90;99.90
36670;DHT22;22662;47.412;9.742;2022-11-14T05:52:54;6.00;99.90
36670;DHT22;22662;47.412;9.742;2022-11-14T05:55:20;6.00;99.90
36670;DHT22;22662;47.412;9.742;2022-11-14T05:57:45;6.00;99.90
36670;DHT22;22662;47.412;9.742;2022-11-14T06:00:12;6.00;99.90
36670;DHT22;22662;47.412;9.742;2022-11-14T06:02:37;6.00;99.90
36670;DHT22;22662;47.412;9.742;2022-11-14T06:05:03;6.00;99.90
36670;DHT22;22662;47.412;9.742;2022-11-14T06:07:28;5.90;99.90
36670;DHT22;22662;47.412;9.742;2022-11-14T06:09:54;6.00;99.90
36670;DHT22;22662;47.412;9.742;2022-11-14T06:12:20;6.00;99.90
36670;DHT22;22662;47.412;9.742;2022-11-14T06:14:45;6.10;99.90
36670;DHT22;22662;47.412;9.742;2022-11-14T06:17:11;6.10;99.90
36670;DHT22;22662;47.412;9.742;2022-11-14T06:19:36;6.10;99.90
36670;DHT22;22662;47.412;9.742;2022-11-14T06:22:02;6.20;99.90
36670;DHT22;22662;47.412;9.742;2022-11-14T06:24:27;6.40;99.90
36670;DHT22;22662;47.412;9.742;2022-11-14T06:26:53;6.50;99.90
36670;DHT22;22662;47.412;9.742;2022-11-14T06:29:20;6.50;99.90
36670;DHT22;22662;47.412;9.742;2022-11-14T06:31:45;6.60;99.90
36670;DHT22;22662;47.412;9.742;2022-11-14T06:34:11;6.70;99.90
36670;DHT22;22662;47.412;9.742;2022-11-14T06:36:37;6.80;99.90
36670;DHT22;22662;47.412;9.742;2022-11-14T06:39:02;6.90;99.90
36670;DHT22;22662;47.412;9.742;2022-11-14T06:41:28;7.20;99.90
36670;DHT22;22662;47.412;9.742;2022-11-14T06:43:54;7.30;99.90
36670;DHT22;22662;47.412;9.742;2022-11-14T06:46:20;7.50;99.90
36670;DHT22;22662;47.412;9.742;2022-11-14T06:48:46;7.60;99.90
36670;DHT22;22662;47.412;9.742;2022-11-14T06:51:13;7.70;99.90
36670;DHT22;22662;47.412;9.742;2022-11-14T06:53:39;7.80;99.90
36670;DHT22;22662;47.412;9.742;2022-11-14T06:58:32;7.80;99.90
36670;DHT22;22662;47.412;9.742;2022-11-14T07:03:32;7.70;99.90
36670;DHT22;22662;47.412;9.742;2022-11-14T07:06:01;7.80;99.90
36670;DHT22;22662;47.412;9.742;2022-11-14T07:08:27;7.70;99.90
36670;DHT22;22662;47.412;9.742;2022-11-14T07:10:53;7.80;99.90
36670;DHT22;22662;47.412;9.742;2022-11-14T07:13:18;7.80;99.90
36670;DHT22;22662;47.412;9.742;2022-11-14T07:15:53;7.90;99.90
36670;DHT22;22662;47.412;9.742;2022-11-14T07:18:18;7.90;99.90
36670;DHT22;22662;47.412;9.742;2022-11-14T07:20:44;7.90;99.90
36670;DHT22;22662;47.412;9.742;2022-11-14T07:23:10;8.00;99.90
36670;DHT22;22662;47.412;9.742;2022-11-14T07:25:35;8.10;99.90
36670;DHT22;22662;47.412;9.742;2022-11-14T07:28:01;8.20;99.90
36670;DHT22;22662;47.412;9.742;2022-11-14T07:30:27;8.20;99.90
36670;DHT22;22662;47.412;9.742;2022-11-14T07:32:55;8.30;99.90
36670;DHT22;22662;47.412;9.742;2022-11-14T07:35:21;8.40;99.90
36670;DHT22;22662;47.412;9.742;2022-11-14T07:37:47;8.60;99.90
36670;DHT22;22662;47.412;9.742;2022-11-14T07:40:12;8.60;99.90
36670;DHT22;22662;47.412;9.742;2022-11-14T07:42:38;8.50;99.90
36670;DHT22;22662;47.412;9.742;2022-11-14T07:45:04;8.40;99.90
36670;DHT22;22662;47.412;9.742;2022-11-14T07:47:29;8.40;99.90
36670;DHT22;22662;47.412;9.742;2022-11-14T07:49:55;8.30;99.90
36670;DHT22;22662;47.412;9.742;2022-11-14T07:52:23;8.20;99.90
36670;DHT22;22662;47.412;9.742;2022-11-14T07:54:49;8.20;99.90
36670;DHT22;22662;47.412;9.742;2022-11-14T07:57:14;8.20;99.90
36670;DHT22;22662;47.412;9.742;2022-11-14T07:59:40;8.30;99.90
36670;DHT22;22662;47.412;9.742;2022-11-14T08:02:07;8.40;99.90
36670;DHT22;22662;47.412;9.742;2022-11-14T08:04:33;8.50;99.90
36670;DHT22;22662;47.412;9.742;2022-11-14T08:06:59;8.50;99.90
36670;DHT22;22662;47.412;9.742;2022-11-14T08:09:24;8.40;99.90
36670;DHT22;22662;47.412;9.742;2022-11-14T08:11:50;8.50;99.90
36670;DHT22;22662;47.412;9.742;2022-11-14T08:14:16;8.60;99.90
36670;DHT22;22662;47.412;9.742;2022-11-14T08:16:41;8.60;99.90
36670;DHT22;22662;47.412;9.742;2022-11-14T08:19:07;8.80;99.90
36670;DHT22;22662;47.412;9.742;2022-11-14T08:21:32;9.00;99.90
36670;DHT22;22662;47.412;9.742;2022-11-14T08:23:58;9.00;99.90
36670;DHT22;22662;47.412;9.742;2022-11-14T08:26:24;9.00;99.90
36670;DHT22;22662;47.412;9.742;2022-11-14T08:28:52;8.90;99.90
36670;DHT22;22662;47.412;9.742;2022-11-14T08:31:19;8.90;99.90
36670;DHT22;22662;47.412;9.742;2022-11-14T08:33:44;9.00;99.90
36670;DHT22;22662;47.412;9.742;2022-11-14T08:36:10;10.20;99.90
36670;DHT22;22662;47.412;9.742;2022-11-14T08:38:36;10.10;99.90
36670;DHT22;22662;47.412;9.742;2022-11-14T08:41:02;10.00;99.90
36670;DHT22;22662;47.412;9.742;2022-11-14T08:43:29;9.50;99.90
36670;DHT22;22662;47.412;9.742;2022-11-14T08:45:58;9.70;99.90
36670;DHT22;22662;47.412;9.742;2022-11-14T08:48:24;9.80;99.90
36670;DHT22;22662;47.412;9.742;2022-11-14T08:50:49;9.80;99.90
36670;DHT22;22662;47.412;9.742;2022-11-14T08:53:15;9.80;99.90
36670;DHT22;22662;47.412;9.742;2022-11-14T08:55:44;9.70;99.90
36670;DHT22;22662;47.412;9.742;2022-11-14T08:58:09;9.80;99.90
36670;DHT22;22662;47.412;9.742;2022-11-14T09:00:35;9.90;99.90
36670;DHT22;22662;47.412;9.742;2022-11-14T09:03:05;9.80;99.90
36670;DHT22;22662;47.412;9.742;2022-11-14T09:05:31;10.00;99.90
36670;DHT22;22662;47.412;9.742;2022-11-14T09:07:57;9.80;99.90
36670;DHT22;22662;47.412;9.742;2022-11-14T09:10:22;9.90;99.90
36670;DHT22;22662;47.412;9.742;2022-11-14T09:12:53;10.30;99.90
36670;DHT22;22662;47.412;9.742;2022-11-14T09:15:19;10.30;99.90
36670;DHT22;22662;47.412;9.742;2022-11-14T09:17:44;10.30;99.90
36670;DHT22;22662;47.412;9.742;2022-11-14T09:20:10;10.20;99.90
36670;DHT22;22662;47.412;9.742;2022-11-14T09:22:36;10.20;99.90
36670;DHT22;22662;47.412;9.742;2022-11-14T09:25:01;10.00;99.90
36670;DHT22;22662;47.412;9.742;2022-11-14T09:27:27;10.30;99.90
36670;DHT22;22662;47.412;9.742;2022-11-14T09:29:52;10.30;99.90
36670;DHT22;22662;47.412;9.742;2022-11-14T09:32:18;10.20;99.90
36670;DHT22;22662;47.412;9.742;2022-11-14T09:34:44;10.20;99.90
36670;DHT22;22662;47.412;9.742;2022-11-14T09:37:10;10.00;99.90
36670;DHT22;22662;47.412;9.742;2022-11-14T09:39:35;9.90;99.90
36670;DHT22;22662;47.412;9.742;2022-11-14T09:44:45;10.00;99.90
36670;DHT22;22662;47.412;9.742;2022-11-14T09:47:14;9.90;99.90
36670;DHT22;22662;47.412;9.742;2022-11-14T09:49:42;9.70;99.90
36670;DHT22;22662;47.412;9.742;2022-11-14T09:55:00;9.70;99.90
36670;DHT22;22662;47.412;9.742;2022-11-14T09:57:27;9.70;99.90
36670;DHT22;22662;47.412;9.742;2022-11-14T09:59:53;9.50;99.90
36670;DHT22;22662;47.412;9.742;2022-11-14T10:02:38;9.40;99.90
36670;DHT22;22662;47.412;9.742;2022-11-14T10:10:34;9.40;99.90
36670;DHT22;22662;47.412;9.742;2022-11-14T10:21:00;9.30;99.90
36670;DHT22;22662;47.412;9.742;2022-11-14T10:28:39;9.50;99.90
36670;DHT22;22662;47.412;9.742;2022-11-14T10:31:13;9.70;99.90
36670;DHT22;22662;47.412;9.742;2022-11-14T10:34:16;9.90;99.90
36670;DHT22;22662;47.412;9.742;2022-11-14T10:39:26;10.30;99.90
36670;DHT22;22662;47.412;9.742;2022-11-14T10:41:54;10.50;99.90
36670;DHT22;22662;47.412;9.742;2022-11-14T10:44:27;10.80;99.90
36670;DHT22;22662;47.412;9.742;2022-11-14T10:46:55;10.80;99.90
36670;DHT22;22662;47.412;9.742;2022-11-14T10:49:23;11.10;99.90
36670;DHT22;22662;47.412;9.742;2022-11-14T10:51:50;11.30;99.90
36670;DHT22;22662;47.412;9.742;2022-11-14T10:56:46;11.50;99.90
36670;DHT22;22662;47.412;9.742;2022-11-14T10:59:12;11.60;99.90
36670;DHT22;22662;47.412;9.742;2022-11-14T11:01:41;11.70;99.90
36670;DHT22;22662;47.412;9.742;2022-11-14T11:04:26;11.90;99.90
36670;DHT22;22662;47.412;9.742;2022-11-14T11:06:56;12.00;99.90
36670;DHT22;22662;47.412;9.742;2022-11-14T11:09:23;12.10;99.90
36670;DHT22;22662;47.412;9.742;2022-11-14T11:12:08;12.30;99.90
36670;DHT22;22662;47.412;9.742;2022-11-14T11:14:39;12.50;99.90
36670;DHT22;22662;47.412;9.742;2022-11-14T11:19:37;12.60;99.90
36670;DHT22;22662;47.412;9.742;2022-11-14T11:22:03;12.80;99.90
36670;DHT22;22662;47.412;9.742;2022-11-14T11:24:29;13.00;99.90
36670;DHT22;22662;47.412;9.742;2022-11-14T11:27:19;13.10;99.90
36670;DHT22;22662;47.412;9.742;2022-11-14T11:30:00;13.00;99.90
36670;DHT22;22662;47.412;9.742;2022-11-14T11:32:27;13.50;99.90
36670;DHT22;22662;47.412;9.742;2022-11-14T11:34:52;13.60;99.90
36670;DHT22;22662;47.412;9.742;2022-11-14T11:40:05;13.60;99.90
36670;DHT22;22662;47.412;9.742;2022-11-14T11:42:39;13.60;99.90
36670;DHT22;22662;47.412;9.742;2022-11-14T11:45:14;13.70;99.90
36670;DHT22;22662;47.412;9.742;2022-11-14T11:47:43;13.60;99.90
36670;DHT22;22662;47.412;9.742;2022-11-14T11:50:15;13.50;99.90
36670;DHT22;22662;47.412;9.742;2022-11-14T11:55:16;13.20;99.90
36670;DHT22;22662;47.412;9.742;2022-11-14T11:57:46;12.90;99.90
36670;DHT22;22662;47.412;9.742;2022-11-14T12:00:13;12.80;99.90
36670;DHT22;22662;47.412;9.742;2022-11-14T12:02:41;12.80;99.90
36670;DHT22;22662;47.412;9.742;2022-11-14T12:05:10;12.60;99.90
36670;DHT22;22662;47.412;9.742;2022-11-14T12:10:25;12.40;99.90
36670;DHT22;22662;47.412;9.742;2022-11-14T12:30:41;12.40;99.90
36670;DHT22;22662;47.412;9.742;2022-11-14T12:35:45;12.40;99.90
36670;DHT22;22662;47.412;9.742;2022-11-14T12:38:13;12.50;99.90
36670;DHT22;22662;47.412;9.742;2022-11-14T12:40:40;12.50;99.90
36670;DHT22;22662;47.412;9.742;2022-11-14T12:48:28;13.00;99.90
36670;DHT22;22662;47.412;9.742;2022-11-14T12:50:55;13.10;99.90
36670;DHT22;22662;47.412;9.742;2022-11-14T13:06:24;13.70;99.90
36670;DHT22;22662;47.412;9.742;2022-11-14T13:08:55;13.70;99.90
36670;DHT22;22662;47.412;9.742;2022-11-14T13:14:19;13.70;99.90
36670;DHT22;22662;47.412;9.742;2022-11-14T13:17:10;13.70;99.90
36670;DHT22;22662;47.412;9.742;2022-11-14T13:20:00;13.80;99.90
36670;DHT22;22662;47.412;9.742;2022-11-14T13:22:45;13.90;99.90
36670;DHT22;22662;47.412;9.742;2022-11-14T13:25:14;14.10;99.90
36670;DHT22;22662;47.412;9.742;2022-11-14T13:27:40;14.10;99.90
36670;DHT22;22662;47.412;9.742;2022-11-14T13:30:05;14.10;99.90
36670;DHT22;22662;47.412;9.742;2022-11-14T13:32:53;14.30;99.90
36670;DHT22;22662;47.412;9.742;2022-11-14T13:38:30;14.60;99.90
36670;DHT22;22662;47.412;9.742;2022-11-14T13:46:15;14.70;99.90
36670;DHT22;22662;47.412;9.742;2022-11-14T13:51:13;14.60;99.90
36670;DHT22;22662;47.412;9.742;2022-11-14T13:53:40;14.50;99.90
36670;DHT22;22662;47.412;9.742;2022-11-14T13:59:01;14.30;99.90
36670;DHT22;22662;47.412;9.742;2022-11-14T14:01:40;14.30;99.90
36670;DHT22;22662;47.412;9.742;2022-11-14T14:04:27;14.20;99.90
36670;DHT22;22662;47.412;9.742;2022-11-14T14:07:09;14.10;99.90
36670;DHT22;22662;47.412;9.742;2022-11-14T14:09:43;14.00;99.90
36670;DHT22;22662;47.412;9.742;2022-11-14T14:20:09;13.70;99.90
36670;DHT22;22662;47.412;9.742;2022-11-14T14:25:25;13.60;99.90
36670;DHT22;22662;47.412;9.742;2022-11-14T14:28:04;13.70;99.90
36670;DHT22;22662;47.412;9.742;2022-11-14T14:30:34;13.70;99.90
36670;DHT22;22662;47.412;9.742;2022-11-14T14:35:32;13.60;99.90
36670;DHT22;22662;47.412;9.742;2022-11-14T14:37:57;13.50;99.90
36670;DHT22;22662;47.412;9.742;2022-11-14T14:42:49;13.60;99.90
36670;DHT22;22662;47.412;9.742;2022-11-14T14:45:16;13.60;99.90
36670;DHT22;22662;47.412;9.742;2022-11-14T14:47:43;13.60;99.90
36670;DHT22;22662;47.412;9.742;2022-11-14T14:50:53;13.40;99.90
36670;DHT22;22662;47.412;9.742;2022-11-14T14:53:00;13.40;99.90
36670;DHT22;22662;47.412;9.742;2022-11-14T14:55:27;13.30;99.90
36670;DHT22;22662;47.412;9.742;2022-11-14T14:57:53;13.20;99.90
36670;DHT22;22662;47.412;9.742;2022-11-14T15:00:20;13.10;99.90
36670;DHT22;22662;47.412;9.742;2022-11-14T15:02:46;13.00;99.90
36670;DHT22;22662;47.412;9.742;2022-11-14T15:05:20;13.00;99.90
36670;DHT22;22662;47.412;9.742;2022-11-14T15:07:46;12.90;99.90
36670;DHT22;22662;47.412;9.742;2022-11-14T15:10:19;12.90;99.90
36670;DHT22;22662;47.412;9.742;2022-11-14T15:12:45;12.80;99.90
36670;DHT22;22662;47.412;9.742;2022-11-14T15:15:11;12.80;99.90
36670;DHT22;22662;47.412;9.742;2022-11-14T15:17:37;12.70;99.90
36670;DHT22;22662;47.412;9.742;2022-11-14T15:20:03;12.70;99.90
36670;DHT22;22662;47.412;9.742;2022-11-14T15:22:29;12.60;99.90
36670;DHT22;22662;47.412;9.742;2022-11-14T15:27:52;12.60;99.90
36670;DHT22;22662;47.412;9.742;2022-11-14T15:30:19;12.70;99.90
36670;DHT22;22662;47.412;9.742;2022-11-14T15:32:47;12.60;99.90
36670;DHT22;22662;47.412;9.742;2022-11-14T15:40:25;12.60;99.90
36670;DHT22;22662;47.412;9.742;2022-11-14T15:42:50;12.60;99.90
36670;DHT22;22662;47.412;9.742;2022-11-14T15:45:20;12.60;99.90
36670;DHT22;22662;47.412;9.742;2022-11-14T15:47:45;12.60;99.90
36670;DHT22;22662;47.412;9.742;2022-11-14T15:52:37;12.60;99.90
36670;DHT22;22662;47.412;9.742;2022-11-14T15:55:14;12.60;99.90
36670;DHT22;22662;47.412;9.742;2022-11-14T15:57:40;12.40;99.90
36670;DHT22;22662;47.412;9.742;2022-11-14T16:00:06;12.30;99.90
36670;DHT22;22662;47.412;9.742;2022-11-14T16:02:32;12.40;99.90
36670;DHT22;22662;47.412;9.742;2022-11-14T16:04:59;12.30;99.90
36670;DHT22;22662;47.412;9.742;2022-11-14T16:07:25;12.20;99.90
36670;DHT22;22662;47.412;9.742;2022-11-14T16:09:52;12.10;99.90
36670;DHT22;22662;47.412;9.742;2022-11-14T16:12:17;12.00;99.90
36670;DHT22;22662;47.412;9.742;2022-11-14T16:14:43;12.10;99.90
36670;DHT22;22662;47.412;9.742;2022-11-14T16:17:13;12.10;99.90
36670;DHT22;22662;47.412;9.742;2022-11-14T16:19:39;12.10;99.90
36670;DHT22;22662;47.412;9.742;2022-11-14T16:22:04;12.00;99.90
36670;DHT22;22662;47.412;9.742;2022-11-14T16:24:30;12.00;99.90
36670;DHT22;22662;47.412;9.742;2022-11-14T16:26:56;12.00;99.90
36670;DHT22;22662;47.412;9.742;2022-11-14T16:29:22;11.90;99.90
36670;DHT22;22662;47.412;9.742;2022-11-14T16:31:48;11.90;99.90
36670;DHT22;22662;47.412;9.742;2022-11-14T16:34:19;11.80;99.90
36670;DHT22;22662;47.412;9.742;2022-11-14T16:36:45;11.80;99.90
36670;DHT22;22662;47.412;9.742;2022-11-14T16:39:12;11.80;99.90
36670;DHT22;22662;47.412;9.742;2022-11-14T16:41:39;11.70;99.90
36670;DHT22;22662;47.412;9.742;2022-11-14T16:44:04;11.80;99.90
36670;DHT22;22662;47.412;9.742;2022-11-14T16:46:30;11.80;99.90
36670;DHT22;22662;47.412;9.742;2022-11-14T16:48:55;11.70;99.90
36670;DHT22;22662;47.412;9.742;2022-11-14T16:51:21;11.60;99.90
36670;DHT22;22662;47.412;9.742;2022-11-14T16:53:47;11.50;99.90
36670;DHT22;22662;47.412;9.742;2022-11-14T16:56:12;11.50;99.90
36670;DHT22;22662;47.412;9.742;2022-11-14T16:58:38;11.60;99.90
36670;DHT22;22662;47.412;9.742;2022-11-14T17:01:06;11.50;99.90
36670;DHT22;22662;47.412;9.742;2022-11-14T17:03:32;11.40;99.90
36670;DHT22;22662;47.412;9.742;2022-11-14T17:05:58;11.40;99.90
36670;DHT22;22662;47.412;9.742;2022-11-14T17:08:23;11.40;99.90
36670;DHT22;22662;47.412;9.742;2022-11-14T17:10:49;11.40;99.90
36670;DHT22;22662;47.412;9.742;2022-11-14T17:13:14;11.40;99.90
36670;DHT22;22662;47.412;9.742;2022-11-14T17:15:43;11.30;99.90
36670;DHT22;22662;47.412;9.742;2022-11-14T17:18:08;11.30;99.90
36670;DHT22;22662;47.412;9.742;2022-11-14T17:20:36;11.50;99.90
36670;DHT22;22662;47.412;9.742;2022-11-14T17:23:01;11.60;99.90
36670;DHT22;22662;47.412;9.742;2022-11-14T17:25:27;11.70;99.90
36670;DHT22;22662;47.412;9.742;2022-11-14T17:27:54;11.80;99.90
36670;DHT22;22662;47.412;9.742;2022-11-14T17:30:19;11.90;99.90
36670;DHT22;22662;47.412;9.742;2022-11-14T17:32:45;12.00;99.90
36670;DHT22;22662;47.412;9.742;2022-11-14T17:35:10;12.00;99.90
36670;DHT22;22662;47.412;9.742;2022-11-14T17:37:36;12.00;99.90
36670;DHT22;22662;47.412;9.742;2022-11-14T17:40:02;11.90;99.90
36670;DHT22;22662;47.412;9.742;2022-11-14T17:42:27;12.00;99.90
36670;DHT22;22662;47.412;9.742;2022-11-14T17:44:53;12.10;99.90
36670;DHT22;22662;47.412;9.742;2022-11-14T17:47:19;12.10;99.90
36670;DHT22;22662;47.412;9.742;2022-11-14T17:49:44;12.10;99.90
36670;DHT22;22662;47.412;9.742;2022-11-14T17:52:10;12.00;99.90